sensor_id;sensor_type;location;lat;lon;timestamp;temperature;humidity
10692;DHT22;5396;50.950;6.988;2022-12-07T00:03:36;4.90;99.90
10692;DHT22;5396;50.950;6.988;2022-12-07T00:06:03;4.90;99.90
10692;DHT22;5396;50.950;6.988;2022-12-07T00:08:30;4.90;99.90
10692;DHT22;5396;50.950;6.988;2022-12-07T00:11:01;5.00;99.90
10692;DHT22;5396;50.950;6.988;2022-12-07T00:13:27;5.00;99.90
10692;DHT22;5396;50.950;6.988;2022-12-07T00:15:53;5.00;99.90
10692;DHT22;5396;50.950;6.988;2022-12-07T00:18:18;5.00;99.90
10692;DHT22;5396;50.950;6.988;2022-12-07T00:20:44;5.00;99.90
10692;DHT22;5396;50.950;6.988;2022-12-07T00:23:09;5.00;99.90
10692;DHT22;5396;50.950;6.988;2022-12-07T00:25:35;5.00;99.90
10692;DHT22;5396;50.950;6.988;2022-12-07T00:28:00;5.00;99.90
10692;DHT22;5396;50.950;6.988;2022-12-07T00:30:26;5.00;99.90
10692;DHT22;5396;50.950;6.988;2022-12-07T00:32:51;5.00;99.90
10692;DHT22;5396;50.950;6.988;2022-12-07T00:35:17;5.00;99.90
10692;DHT22;5396;50.950;6.988;2022-12-07T00:37:43;5.00;99.90
10692;DHT22;5396;50.950;6.988;2022-12-07T00:40:09;5.00;99.90
10692;DHT22;5396;50.950;6.988;2022-12-07T00:42:34;5.00;99.90
10692;DHT22;5396;50.950;6.988;2022-12-07T00:45:00;5.00;99.90
10692;DHT22;5396;50.950;6.988;2022-12-07T00:47:25;5.00;99.90
10692;DHT22;5396;50.950;6.988;2022-12-07T00:49:51;5.00;99.90
10692;DHT22;5396;50.950;6.988;2022-12-07T00:52:17;5.00;99.90
10692;DHT22;5396;50.950;6.988;2022-12-07T00:54:42;5.10;99.90
10692;DHT22;5396;50.950;6.988;2022-12-07T00:57:08;5.10;99.90
10692;DHT22;5396;50.950;6.988;2022-12-07T00:59:33;5.10;99.90
10692;DHT22;5396;50.950;6.988;2022-12-07T01:01:59;5.10;99.90
10692;DHT22;5396;50.950;6.988;2022-12-07T01:04:25;5.10;99.90
10692;DHT22;5396;50.950;6.988;2022-12-07T01:06:50;5.10;99.90
10692;DHT22;5396;50.950;6.988;2022-12-07T01:09:16;5.10;99.90
10692;DHT22;5396;50.950;6.988;2022-12-07T01:11:41;5.10;99.90
10692;DHT22;5396;50.950;6.988;2022-12-07T01:14:08;5.10;99.90
10692;DHT22;5396;50.950;6.988;2022-12-07T01:16:34;5.10;99.90
10692;DHT22;5396;50.950;6.988;2022-12-07T01:19:01;5.10;99.90
10692;DHT22;5396;50.950;6.988;2022-12-07T01:21:32;5.10;99.90
10692;DHT22;5396;50.950;6.988;2022-12-07T01:24:00;5.10;99.90
10692;DHT22;5396;50.950;6.988;2022-12-07T01:26:26;5.10;99.90
10692;DHT22;5396;50.950;6.988;2022-12-07T01:28:52;5.20;99.90
10692;DHT22;5396;50.950;6.988;2022-12-07T01:31:21;5.10;99.90
10692;DHT22;5396;50.950;6.988;2022-12-07T01:33:50;5.10;99.90
10692;DHT22;5396;50.950;6.988;2022-12-07T01:36:19;5.10;99.90
10692;DHT22;5396;50.950;6.988;2022-12-07T01:38:46;5.10;99.90
10692;DHT22;5396;50.950;6.988;2022-12-07T01:41:12;5.10;99.90
10692;DHT22;5396;50.950;6.988;2022-12-07T01:44:11;5.10;99.90
10692;DHT22;5396;50.950;6.988;2022-12-07T01:46:38;5.10;99.90
10692;DHT22;5396;50.950;6.988;2022-12-07T01:49:07;5.10;99.90
10692;DHT22;5396;50.950;6.988;2022-12-07T01:51:34;5.10;99.90
10692;DHT22;5396;50.950;6.988;2022-12-07T01:54:01;5.10;99.90
10692;DHT22;5396;50.950;6.988;2022-12-07T01:56:28;5.00;99.90
10692;DHT22;5396;50.950;6.988;2022-12-07T01:58:55;5.00;99.90
10692;DHT22;5396;50.950;6.988;2022-12-07T02:01:22;5.00;99.90
10692;DHT22;5396;50.950;6.988;2022-12-07T02:03:48;5.00;99.90
10692;DHT22;5396;50.950;6.988;2022-12-07T02:06:19;4.90;99.90
10692;DHT22;5396;50.950;6.988;2022-12-07T02:08:46;4.90;99.90
10692;DHT22;5396;50.950;6.988;2022-12-07T02:11:12;4.90;99.90
10692;DHT22;5396;50.950;6.988;2022-12-07T02:13:40;4.90;99.90
10692;DHT22;5396;50.950;6.988;2022-12-07T02:22:01;4.80;99.90
10692;DHT22;5396;50.950;6.988;2022-12-07T02:25:01;4.80;99.90
10692;DHT22;5396;50.950;6.988;2022-12-07T02:30:16;4.80;99.90
10692;DHT22;5396;50.950;6.988;2022-12-07T02:38:11;4.80;99.90
10692;DHT22;5396;50.950;6.988;2022-12-07T02:40:50;4.80;99.90
10692;DHT22;5396;50.950;6.988;2022-12-07T02:43:21;4.80;99.90
10692;DHT22;5396;50.950;6.988;2022-12-07T02:45:50;4.80;99.90
10692;DHT22;5396;50.950;6.988;2022-12-07T02:48:19;4.80;99.90
10692;DHT22;5396;50.950;6.988;2022-12-07T02:50:49;4.80;99.90
10692;DHT22;5396;50.950;6.988;2022-12-07T02:53:35;4.70;99.90
10692;DHT22;5396;50.950;6.988;2022-12-07T02:57:11;4.70;99.90
10692;DHT22;5396;50.950;6.988;2022-12-07T03:02:27;4.80;99.90
10692;DHT22;5396;50.950;6.988;2022-12-07T03:08:02;4.80;99.90
10692;DHT22;5396;50.950;6.988;2022-12-07T03:15:58;4.80;99.90
10692;DHT22;5396;50.950;6.988;2022-12-07T03:18:28;4.80;99.90
10692;DHT22;5396;50.950;6.988;2022-12-07T03:20:58;4.80;99.90
10692;DHT22;5396;50.950;6.988;2022-12-07T03:23:25;4.80;99.90
10692;DHT22;5396;50.950;6.988;2022-12-07T03:25:56;4.80;99.90
10692;DHT22;5396;50.950;6.988;2022-12-07T03:28:25;4.80;99.90
10692;DHT22;5396;50.950;6.988;2022-12-07T03:31:06;4.80;99.90
10692;DHT22;5396;50.950;6.988;2022-12-07T03:33:40;4.80;99.90
10692;DHT22;5396;50.950;6.988;2022-12-07T03:36:19;4.80;99.90
10692;DHT22;5396;50.950;6.988;2022-12-07T03:38:58;4.80;99.90
10692;DHT22;5396;50.950;6.988;2022-12-07T03:41:29;4.80;99.90
10692;DHT22;5396;50.950;6.988;2022-12-07T03:43:57;4.80;99.90
10692;DHT22;5396;50.950;6.988;2022-12-07T03:46:37;4.80;99.90
10692;DHT22;5396;50.950;6.988;2022-12-07T03:49:24;4.80;99.90
10692;DHT22;5396;50.950;6.988;2022-12-07T03:54:29;4.80;99.90
10692;DHT22;5396;50.950;6.988;2022-12-07T03:56:57;4.80;99.90
10692;DHT22;5396;50.950;6.988;2022-12-07T03:59:24;4.80;99.90
10692;DHT22;5396;50.950;6.988;2022-12-07T04:01:55;4.80;99.90
10692;DHT22;5396;50.950;6.988;2022-12-07T04:04:22;4.80;99.90
10692;DHT22;5396;50.950;6.988;2022-12-07T04:06:49;4.80;99.90
10692;DHT22;5396;50.950;6.988;2022-12-07T04:09:15;4.80;99.90
10692;DHT22;5396;50.950;6.988;2022-12-07T04:11:42;4.80;99.90
10692;DHT22;5396;50.950;6.988;2022-12-07T04:14:07;4.80;99.90
10692;DHT22;5396;50.950;6.988;2022-12-07T04:16:52;4.80;99.90
10692;DHT22;5396;50.950;6.988;2022-12-07T04:19:20;4.80;99.90
10692;DHT22;5396;50.950;6.988;2022-12-07T04:21:47;4.80;99.90
10692;DHT22;5396;50.950;6.988;2022-12-07T04:24:14;4.80;99.90
10692;DHT22;5396;50.950;6.988;2022-12-07T04:26:41;4.80;99.90
10692;DHT22;5396;50.950;6.988;2022-12-07T04:29:07;4.80;99.90
10692;DHT22;5396;50.950;6.988;2022-12-07T04:31:34;4.80;99.90
10692;DHT22;5396;50.950;6.988;2022-12-07T04:33:59;4.80;99.90
10692;DHT22;5396;50.950;6.988;2022-12-07T04:36:25;4.80;99.90
10692;DHT22;5396;50.950;6.988;2022-12-07T04:38:53;4.80;99.90
10692;DHT22;5396;50.950;6.988;2022-12-07T04:41:19;4.80;99.90
10692;DHT22;5396;50.950;6.988;2022-12-07T04:43:55;4.80;99.90
10692;DHT22;5396;50.950;6.988;2022-12-07T04:46:23;4.80;99.90
10692;DHT22;5396;50.950;6.988;2022-12-07T04:48:49;4.80;99.90
10692;DHT22;5396;50.950;6.988;2022-12-07T04:51:35;4.80;99.90
10692;DHT22;5396;50.950;6.988;2022-12-07T04:54:01;4.80;99.90
10692;DHT22;5396;50.950;6.988;2022-12-07T04:56:27;4.80;99.90
10692;DHT22;5396;50.950;6.988;2022-12-07T04:58:53;4.80;99.90
10692;DHT22;5396;50.950;6.988;2022-12-07T05:01:19;4.80;99.90
10692;DHT22;5396;50.950;6.988;2022-12-07T05:03:45;4.80;99.90
10692;DHT22;5396;50.950;6.988;2022-12-07T05:06:12;4.80;99.90
10692;DHT22;5396;50.950;6.988;2022-12-07T05:08:37;4.80;99.90
10692;DHT22;5396;50.950;6.988;2022-12-07T05:11:04;4.80;99.90
10692;DHT22;5396;50.950;6.988;2022-12-07T05:13:30;4.80;99.90
10692;DHT22;5396;50.950;6.988;2022-12-07T05:15:55;4.80;99.90
10692;DHT22;5396;50.950;6.988;2022-12-07T05:18:21;4.80;99.90
10692;DHT22;5396;50.950;6.988;2022-12-07T05:20:47;4.80;99.90
10692;DHT22;5396;50.950;6.988;2022-12-07T05:23:13;4.80;99.90
10692;DHT22;5396;50.950;6.988;2022-12-07T05:25:38;4.80;99.90
10692;DHT22;5396;50.950;6.988;2022-12-07T05:28:05;4.80;99.90
10692;DHT22;5396;50.950;6.988;2022-12-07T05:30:31;4.80;99.90
10692;DHT22;5396;50.950;6.988;2022-12-07T05:32:57;4.80;99.90
10692;DHT22;5396;50.950;6.988;2022-12-07T05:35:23;4.80;99.90
10692;DHT22;5396;50.950;6.988;2022-12-07T05:37:48;4.80;99.90
10692;DHT22;5396;50.950;6.988;2022-12-07T05:40:15;4.80;99.90
10692;DHT22;5396;50.950;6.988;2022-12-07T05:42:41;4.80;99.90
10692;DHT22;5396;50.950;6.988;2022-12-07T05:45:08;4.70;99.90
10692;DHT22;5396;50.950;6.988;2022-12-07T05:47:34;4.70;99.90
10692;DHT22;5396;50.950;6.988;2022-12-07T05:50:00;4.70;99.90
10692;DHT22;5396;50.950;6.988;2022-12-07T05:52:26;4.70;99.90
10692;DHT22;5396;50.950;6.988;2022-12-07T05:54:52;4.70;99.90
10692;DHT22;5396;50.950;6.988;2022-12-07T05:57:18;4.70;99.90
10692;DHT22;5396;50.950;6.988;2022-12-07T05:59:44;4.70;99.90
10692;DHT22;5396;50.950;6.988;2022-12-07T06:02:12;4.60;99.90
10692;DHT22;5396;50.950;6.988;2022-12-07T06:04:40;4.60;99.90
10692;DHT22;5396;50.950;6.988;2022-12-07T06:07:06;4.50;99.90
10692;DHT22;5396;50.950;6.988;2022-12-07T06:09:33;4.50;99.90
10692;DHT22;5396;50.950;6.988;2022-12-07T06:11:59;4.50;99.90
10692;DHT22;5396;50.950;6.988;2022-12-07T06:14:43;4.50;99.90
10692;DHT22;5396;50.950;6.988;2022-12-07T06:17:09;4.50;99.90
10692;DHT22;5396;50.950;6.988;2022-12-07T06:19:35;4.40;99.90
10692;DHT22;5396;50.950;6.988;2022-12-07T06:22:01;4.40;99.90
10692;DHT22;5396;50.950;6.988;2022-12-07T06:24:28;4.30;99.90
10692;DHT22;5396;50.950;6.988;2022-12-07T06:26:53;4.30;99.90
10692;DHT22;5396;50.950;6.988;2022-12-07T06:29:19;4.30;99.90
10692;DHT22;5396;50.950;6.988;2022-12-07T06:31:45;4.30;99.90
10692;DHT22;5396;50.950;6.988;2022-12-07T06:34:13;4.30;99.90
10692;DHT22;5396;50.950;6.988;2022-12-07T06:36:39;4.30;99.90
10692;DHT22;5396;50.950;6.988;2022-12-07T06:39:05;4.30;99.90
10692;DHT22;5396;50.950;6.988;2022-12-07T06:41:31;4.30;99.90
10692;DHT22;5396;50.950;6.988;2022-12-07T06:43:57;4.30;99.90
10692;DHT22;5396;50.950;6.988;2022-12-07T06:46:23;4.30;99.90
10692;DHT22;5396;50.950;6.988;2022-12-07T06:48:49;4.40;99.90
10692;DHT22;5396;50.950;6.988;2022-12-07T06:51:14;4.40;99.90
10692;DHT22;5396;50.950;6.988;2022-12-07T06:53:40;4.40;99.90
10692;DHT22;5396;50.950;6.988;2022-12-07T06:56:06;4.40;99.90
10692;DHT22;5396;50.950;6.988;2022-12-07T06:58:32;4.40;99.90
10692;DHT22;5396;50.950;6.988;2022-12-07T07:00:57;4.40;99.90
10692;DHT22;5396;50.950;6.988;2022-12-07T07:03:23;4.40;99.90
10692;DHT22;5396;50.950;6.988;2022-12-07T07:05:48;4.40;99.90
10692;DHT22;5396;50.950;6.988;2022-12-07T07:08:14;4.40;99.90
10692;DHT22;5396;50.950;6.988;2022-12-07T07:10:40;4.40;99.90
10692;DHT22;5396;50.950;6.988;2022-12-07T07:13:06;4.40;99.90
10692;DHT22;5396;50.950;6.988;2022-12-07T07:15:33;4.50;99.90
10692;DHT22;5396;50.950;6.988;2022-12-07T07:17:59;4.50;99.90
10692;DHT22;5396;50.950;6.988;2022-12-07T07:20:25;4.40;99.90
10692;DHT22;5396;50.950;6.988;2022-12-07T07:22:51;4.40;99.90
10692;DHT22;5396;50.950;6.988;2022-12-07T07:25:18;4.40;99.90
10692;DHT22;5396;50.950;6.988;2022-12-07T07:27:44;4.40;99.90
10692;DHT22;5396;50.950;6.988;2022-12-07T07:30:10;4.40;99.90
10692;DHT22;5396;50.950;6.988;2022-12-07T07:32:36;4.40;99.90
10692;DHT22;5396;50.950;6.988;2022-12-07T07:35:02;4.40;99.90
10692;DHT22;5396;50.950;6.988;2022-12-07T07:37:28;4.40;99.90
10692;DHT22;5396;50.950;6.988;2022-12-07T07:39:53;4.40;99.90
10692;DHT22;5396;50.950;6.988;2022-12-07T07:42:19;4.40;99.90
10692;DHT22;5396;50.950;6.988;2022-12-07T07:44:45;4.40;99.90
10692;DHT22;5396;50.950;6.988;2022-12-07T07:47:10;4.40;99.90
10692;DHT22;5396;50.950;6.988;2022-12-07T07:49:36;4.40;99.90
10692;DHT22;5396;50.950;6.988;2022-12-07T07:52:02;4.40;99.90
10692;DHT22;5396;50.950;6.988;2022-12-07T07:54:27;4.50;99.90
10692;DHT22;5396;50.950;6.988;2022-12-07T07:56:53;4.50;99.90
10692;DHT22;5396;50.950;6.988;2022-12-07T07:59:19;4.50;99.90
10692;DHT22;5396;50.950;6.988;2022-12-07T08:01:44;4.50;99.90
10692;DHT22;5396;50.950;6.988;2022-12-07T08:04:10;4.50;99.90
10692;DHT22;5396;50.950;6.988;2022-12-07T08:06:35;4.60;99.90
10692;DHT22;5396;50.950;6.988;2022-12-07T08:09:01;4.60;99.90
10692;DHT22;5396;50.950;6.988;2022-12-07T08:11:30;4.70;99.90
10692;DHT22;5396;50.950;6.988;2022-12-07T08:13:56;4.70;99.90
10692;DHT22;5396;50.950;6.988;2022-12-07T08:16:21;4.70;99.90
10692;DHT22;5396;50.950;6.988;2022-12-07T08:18:47;4.70;99.90
10692;DHT22;5396;50.950;6.988;2022-12-07T08:21:14;4.70;99.90
10692;DHT22;5396;50.950;6.988;2022-12-07T08:23:41;4.70;99.90
10692;DHT22;5396;50.950;6.988;2022-12-07T08:26:10;4.70;99.90
10692;DHT22;5396;50.950;6.988;2022-12-07T08:28:36;4.70;99.90
10692;DHT22;5396;50.950;6.988;2022-12-07T08:31:04;4.70;99.90
10692;DHT22;5396;50.950;6.988;2022-12-07T08:33:30;4.70;99.90
10692;DHT22;5396;50.950;6.988;2022-12-07T08:36:03;4.70;99.90
10692;DHT22;5396;50.950;6.988;2022-12-07T08:38:30;4.70;99.90
10692;DHT22;5396;50.950;6.988;2022-12-07T08:40:57;4.70;99.90
10692;DHT22;5396;50.950;6.988;2022-12-07T08:43:23;4.80;99.90
10692;DHT22;5396;50.950;6.988;2022-12-07T08:45:56;4.80;99.90
10692;DHT22;5396;50.950;6.988;2022-12-07T08:48:27;4.80;99.90
10692;DHT22;5396;50.950;6.988;2022-12-07T08:50:52;4.90;99.90
10692;DHT22;5396;50.950;6.988;2022-12-07T08:53:18;4.90;99.90
10692;DHT22;5396;50.950;6.988;2022-12-07T08:55:47;4.90;99.90
10692;DHT22;5396;50.950;6.988;2022-12-07T08:58:14;5.00;99.90
10692;DHT22;5396;50.950;6.988;2022-12-07T09:00:39;5.00;99.90
10692;DHT22;5396;50.950;6.988;2022-12-07T09:03:05;5.00;99.90
10692;DHT22;5396;50.950;6.988;2022-12-07T09:05:33;5.00;99.90
10692;DHT22;5396;50.950;6.988;2022-12-07T09:08:00;5.00;99.90
10692;DHT22;5396;50.950;6.988;2022-12-07T09:10:27;5.10;99.90
10692;DHT22;5396;50.950;6.988;2022-12-07T09:12:52;5.10;99.90
10692;DHT22;5396;50.950;6.988;2022-12-07T09:15:18;5.10;99.90
10692;DHT22;5396;50.950;6.988;2022-12-07T09:17:44;5.20;99.90
10692;DHT22;5396;50.950;6.988;2022-12-07T09:20:10;5.10;99.90
10692;DHT22;5396;50.950;6.988;2022-12-07T09:22:36;5.20;99.90
10692;DHT22;5396;50.950;6.988;2022-12-07T09:25:03;5.20;99.90
10692;DHT22;5396;50.950;6.988;2022-12-07T09:27:29;5.20;99.90
10692;DHT22;5396;50.950;6.988;2022-12-07T09:29:56;5.20;99.90
10692;DHT22;5396;50.950;6.988;2022-12-07T09:32:22;5.20;99.90
10692;DHT22;5396;50.950;6.988;2022-12-07T09:34:48;5.30;99.90
10692;DHT22;5396;50.950;6.988;2022-12-07T09:37:14;5.20;99.90
10692;DHT22;5396;50.950;6.988;2022-12-07T09:39:40;5.20;99.90
10692;DHT22;5396;50.950;6.988;2022-12-07T09:42:07;5.30;99.90
10692;DHT22;5396;50.950;6.988;2022-12-07T09:44:33;5.30;99.90
10692;DHT22;5396;50.950;6.988;2022-12-07T09:47:00;5.30;99.90
10692;DHT22;5396;50.950;6.988;2022-12-07T09:49:29;5.40;99.90
10692;DHT22;5396;50.950;6.988;2022-12-07T09:52:47;5.40;99.90
10692;DHT22;5396;50.950;6.988;2022-12-07T09:54:49;5.50;99.90
10692;DHT22;5396;50.950;6.988;2022-12-07T09:57:16;5.50;99.90
10692;DHT22;5396;50.950;6.988;2022-12-07T09:59:42;5.50;99.90
10692;DHT22;5396;50.950;6.988;2022-12-07T10:05:01;5.70;99.90
10692;DHT22;5396;50.950;6.988;2022-12-07T10:07:29;5.80;99.90
10692;DHT22;5396;50.950;6.988;2022-12-07T10:09:55;5.90;99.90
10692;DHT22;5396;50.950;6.988;2022-12-07T10:12:20;5.90;99.90
10692;DHT22;5396;50.950;6.988;2022-12-07T10:14:55;5.90;99.90
10692;DHT22;5396;50.950;6.988;2022-12-07T10:17:40;5.80;99.90
10692;DHT22;5396;50.950;6.988;2022-12-07T10:20:26;5.80;99.90
10692;DHT22;5396;50.950;6.988;2022-12-07T10:23:03;5.70;99.90
10692;DHT22;5396;50.950;6.988;2022-12-07T10:25:33;5.70;99.90
10692;DHT22;5396;50.950;6.988;2022-12-07T10:30:59;5.70;99.90
10692;DHT22;5396;50.950;6.988;2022-12-07T10:33:34;5.70;99.90
10692;DHT22;5396;50.950;6.988;2022-12-07T10:36:01;5.80;99.90
10692;DHT22;5396;50.950;6.988;2022-12-07T10:38:45;5.90;99.90
10692;DHT22;5396;50.950;6.988;2022-12-07T10:41:12;5.80;99.90
10692;DHT22;5396;50.950;6.988;2022-12-07T10:43:50;5.90;99.90
10692;DHT22;5396;50.950;6.988;2022-12-07T10:46:42;5.90;99.90
10692;DHT22;5396;50.950;6.988;2022-12-07T10:49:39;6.00;99.90
10692;DHT22;5396;50.950;6.988;2022-12-07T10:52:43;6.00;99.90
10692;DHT22;5396;50.950;6.988;2022-12-07T11:07:00;6.00;99.90
10692;DHT22;5396;50.950;6.988;2022-12-07T11:12:15;6.10;99.90
10692;DHT22;5396;50.950;6.988;2022-12-07T11:15:00;6.00;99.90
10692;DHT22;5396;50.950;6.988;2022-12-07T11:17:40;6.10;99.90
10692;DHT22;5396;50.950;6.988;2022-12-07T11:25:48;6.30;99.90
10692;DHT22;5396;50.950;6.988;2022-12-07T11:31:13;6.30;99.90
10692;DHT22;5396;50.950;6.988;2022-12-07T11:33:49;6.40;99.90
10692;DHT22;5396;50.950;6.988;2022-12-07T11:36:36;6.40;99.90
10692;DHT22;5396;50.950;6.988;2022-12-07T11:41:48;6.40;99.90
10692;DHT22;5396;50.950;6.988;2022-12-07T11:46:49;6.30;99.90
10692;DHT22;5396;50.950;6.988;2022-12-07T11:49:21;6.30;99.90
10692;DHT22;5396;50.950;6.988;2022-12-07T11:51:52;6.30;99.90
10692;DHT22;5396;50.950;6.988;2022-12-07T11:54:24;6.30;99.90
10692;DHT22;5396;50.950;6.988;2022-12-07T11:56:54;6.30;99.90
10692;DHT22;5396;50.950;6.988;2022-12-07T11:59:29;6.20;99.90
10692;DHT22;5396;50.950;6.988;2022-12-07T12:02:15;6.20;99.90
10692;DHT22;5396;50.950;6.988;2022-12-07T12:07:17;6.20;99.90
10692;DHT22;5396;50.950;6.988;2022-12-07T12:10:14;6.40;99.90
10692;DHT22;5396;50.950;6.988;2022-12-07T12:13:10;6.50;99.90
10692;DHT22;5396;50.950;6.988;2022-12-07T12:21:15;6.50;99.90
10692;DHT22;5396;50.950;6.988;2022-12-07T12:26:24;6.40;99.90
10692;DHT22;5396;50.950;6.988;2022-12-07T12:31:40;6.20;99.90
10692;DHT22;5396;50.950;6.988;2022-12-07T12:36:54;6.20;99.90
10692;DHT22;5396;50.950;6.988;2022-12-07T12:39:19;6.30;99.90
10692;DHT22;5396;50.950;6.988;2022-12-07T12:46:56;6.40;99.90
10692;DHT22;5396;50.950;6.988;2022-12-07T12:52:46;6.30;99.90
10692;DHT22;5396;50.950;6.988;2022-12-07T12:55:17;6.30;99.90
10692;DHT22;5396;50.950;6.988;2022-12-07T12:57:47;6.40;99.90
10692;DHT22;5396;50.950;6.988;2022-12-07T13:00:23;6.50;99.90
10692;DHT22;5396;50.950;6.988;2022-12-07T13:02:53;6.50;99.90
10692;DHT22;5396;50.950;6.988;2022-12-07T13:05:25;6.50;99.90
10692;DHT22;5396;50.950;6.988;2022-12-07T13:07:56;6.50;99.90
10692;DHT22;5396;50.950;6.988;2022-12-07T13:20:46;6.30;99.90
10692;DHT22;5396;50.950;6.988;2022-12-07T13:23:14;6.20;99.90
10692;DHT22;5396;50.950;6.988;2022-12-07T13:26:09;6.20;99.90
10692;DHT22;5396;50.950;6.988;2022-12-07T13:28:40;6.20;99.90
10692;DHT22;5396;50.950;6.988;2022-12-07T13:33:53;6.20;99.90
10692;DHT22;5396;50.950;6.988;2022-12-07T13:36:25;6.20;99.90
10692;DHT22;5396;50.950;6.988;2022-12-07T13:38:56;6.20;99.90
10692;DHT22;5396;50.950;6.988;2022-12-07T13:41:27;6.30;99.90
10692;DHT22;5396;50.950;6.988;2022-12-07T13:44:00;6.40;99.90
10692;DHT22;5396;50.950;6.988;2022-12-07T13:46:35;6.40;99.90
10692;DHT22;5396;50.950;6.988;2022-12-07T13:49:01;6.40;99.90
10692;DHT22;5396;50.950;6.988;2022-12-07T13:51:28;6.40;99.90
10692;DHT22;5396;50.950;6.988;2022-12-07T13:54:01;6.40;99.90
10692;DHT22;5396;50.950;6.988;2022-12-07T13:56:34;6.50;99.90
10692;DHT22;5396;50.950;6.988;2022-12-07T13:59:00;6.50;99.90
10692;DHT22;5396;50.950;6.988;2022-12-07T14:01:26;6.50;99.90
10692;DHT22;5396;50.950;6.988;2022-12-07T14:03:52;6.50;99.90
10692;DHT22;5396;50.950;6.988;2022-12-07T14:08:46;6.40;99.90
10692;DHT22;5396;50.950;6.988;2022-12-07T14:11:18;6.40;99.90
10692;DHT22;5396;50.950;6.988;2022-12-07T14:13:56;6.30;99.90
10692;DHT22;5396;50.950;6.988;2022-12-07T14:16:28;6.30;99.90
10692;DHT22;5396;50.950;6.988;2022-12-07T14:18:56;6.30;99.90
10692;DHT22;5396;50.950;6.988;2022-12-07T14:21:24;6.20;99.90
10692;DHT22;5396;50.950;6.988;2022-12-07T14:24:15;6.20;99.90
10692;DHT22;5396;50.950;6.988;2022-12-07T14:26:42;6.20;99.90
10692;DHT22;5396;50.950;6.988;2022-12-07T14:31:53;6.10;99.90
10692;DHT22;5396;50.950;6.988;2022-12-07T14:34:21;6.10;99.90
10692;DHT22;5396;50.950;6.988;2022-12-07T14:36:47;6.10;99.90
10692;DHT22;5396;50.950;6.988;2022-12-07T14:39:13;6.10;99.90
10692;DHT22;5396;50.950;6.988;2022-12-07T14:41:38;6.10;99.90
10692;DHT22;5396;50.950;6.988;2022-12-07T14:44:18;6.10;99.90
10692;DHT22;5396;50.950;6.988;2022-12-07T14:46:43;6.10;99.90
10692;DHT22;5396;50.950;6.988;2022-12-07T14:49:09;6.20;99.90
10692;DHT22;5396;50.950;6.988;2022-12-07T14:51:38;6.20;99.90
10692;DHT22;5396;50.950;6.988;2022-12-07T14:54:05;6.20;99.90
10692;DHT22;5396;50.950;6.988;2022-12-07T14:56:31;6.20;99.90
10692;DHT22;5396;50.950;6.988;2022-12-07T14:58:57;6.10;99.90
10692;DHT22;5396;50.950;6.988;2022-12-07T15:01:22;6.10;99.90
10692;DHT22;5396;50.950;6.988;2022-12-07T15:03:48;6.10;99.90
10692;DHT22;5396;50.950;6.988;2022-12-07T15:06:16;6.10;99.90
10692;DHT22;5396;50.950;6.988;2022-12-07T15:08:43;6.20;99.90
10692;DHT22;5396;50.950;6.988;2022-12-07T15:11:17;6.20;99.90
10692;DHT22;5396;50.950;6.988;2022-12-07T15:13:43;6.10;99.90
10692;DHT22;5396;50.950;6.988;2022-12-07T15:16:27;6.10;99.90
10692;DHT22;5396;50.950;6.988;2022-12-07T15:18:52;6.10;99.90
10692;DHT22;5396;50.950;6.988;2022-12-07T15:21:18;6.00;99.90
10692;DHT22;5396;50.950;6.988;2022-12-07T15:23:43;5.90;99.90
10692;DHT22;5396;50.950;6.988;2022-12-07T15:26:13;5.80;99.90
10692;DHT22;5396;50.950;6.988;2022-12-07T15:28:39;5.70;99.90
10692;DHT22;5396;50.950;6.988;2022-12-07T15:31:14;5.60;99.90
10692;DHT22;5396;50.950;6.988;2022-12-07T15:33:40;5.50;99.90
10692;DHT22;5396;50.950;6.988;2022-12-07T15:36:05;5.30;99.90
10692;DHT22;5396;50.950;6.988;2022-12-07T15:38:31;5.10;99.90
10692;DHT22;5396;50.950;6.988;2022-12-07T15:40:57;5.00;99.90
10692;DHT22;5396;50.950;6.988;2022-12-07T15:43:22;4.80;99.90
10692;DHT22;5396;50.950;6.988;2022-12-07T15:46:14;4.80;99.90
10692;DHT22;5396;50.950;6.988;2022-12-07T15:48:40;4.70;99.90
10692;DHT22;5396;50.950;6.988;2022-12-07T15:51:07;4.70;99.90
10692;DHT22;5396;50.950;6.988;2022-12-07T15:53:34;4.60;99.90
10692;DHT22;5396;50.950;6.988;2022-12-07T15:56:00;4.60;99.90
10692;DHT22;5396;50.950;6.988;2022-12-07T15:58:26;4.60;99.90
10692;DHT22;5396;50.950;6.988;2022-12-07T16:00:53;4.50;99.90
10692;DHT22;5396;50.950;6.988;2022-12-07T16:03:18;4.60;99.90
10692;DHT22;5396;50.950;6.988;2022-12-07T16:05:53;4.60;99.90
10692;DHT22;5396;50.950;6.988;2022-12-07T16:08:19;4.60;99.90
10692;DHT22;5396;50.950;6.988;2022-12-07T16:10:45;4.70;99.90
10692;DHT22;5396;50.950;6.988;2022-12-07T16:13:11;4.70;99.90
10692;DHT22;5396;50.950;6.988;2022-12-07T16:15:41;4.70;99.90
10692;DHT22;5396;50.950;6.988;2022-12-07T16:18:07;4.70;99.90
10692;DHT22;5396;50.950;6.988;2022-12-07T16:20:33;4.70;99.90
10692;DHT22;5396;50.950;6.988;2022-12-07T16:22:59;4.70;99.90
10692;DHT22;5396;50.950;6.988;2022-12-07T16:25:24;4.70;99.90
10692;DHT22;5396;50.950;6.988;2022-12-07T16:27:51;4.80;99.90
10692;DHT22;5396;50.950;6.988;2022-12-07T16:30:17;4.80;99.90
10692;DHT22;5396;50.950;6.988;2022-12-07T16:32:43;4.80;99.90
10692;DHT22;5396;50.950;6.988;2022-12-07T16:35:09;4.80;99.90
10692;DHT22;5396;50.950;6.988;2022-12-07T16:37:35;4.80;99.90
10692;DHT22;5396;50.950;6.988;2022-12-07T16:40:01;4.80;99.90
10692;DHT22;5396;50.950;6.988;2022-12-07T16:42:26;4.90;99.90
10692;DHT22;5396;50.950;6.988;2022-12-07T16:44:56;4.90;99.90
10692;DHT22;5396;50.950;6.988;2022-12-07T16:47:22;4.90;99.90
10692;DHT22;5396;50.950;6.988;2022-12-07T16:49:48;4.90;99.90
10692;DHT22;5396;50.950;6.988;2022-12-07T16:52:16;4.90;99.90
10692;DHT22;5396;50.950;6.988;2022-12-07T16:54:41;4.90;99.90
10692;DHT22;5396;50.950;6.988;2022-12-07T16:57:07;4.90;99.90
10692;DHT22;5396;50.950;6.988;2022-12-07T16:59:33;4.90;99.90
10692;DHT22;5396;50.950;6.988;2022-12-07T17:01:58;4.90;99.90
10692;DHT22;5396;50.950;6.988;2022-12-07T17:04:24;5.00;99.90
10692;DHT22;5396;50.950;6.988;2022-12-07T17:06:49;5.00;99.90
10692;DHT22;5396;50.950;6.988;2022-12-07T17:09:15;5.00;99.90
10692;DHT22;5396;50.950;6.988;2022-12-07T17:11:43;5.00;99.90
10692;DHT22;5396;50.950;6.988;2022-12-07T17:14:11;5.00;99.90
10692;DHT22;5396;50.950;6.988;2022-12-07T17:16:55;5.00;99.90
10692;DHT22;5396;50.950;6.988;2022-12-07T17:19:22;5.00;99.90
10692;DHT22;5396;50.950;6.988;2022-12-07T17:21:50;5.00;99.90
10692;DHT22;5396;50.950;6.988;2022-12-07T17:24:16;5.00;99.90
10692;DHT22;5396;50.950;6.988;2022-12-07T17:26:43;5.00;99.90
10692;DHT22;5396;50.950;6.988;2022-12-07T17:29:13;5.10;99.90
10692;DHT22;5396;50.950;6.988;2022-12-07T17:31:39;5.10;99.90
10692;DHT22;5396;50.950;6.988;2022-12-07T17:34:11;5.10;99.90
10692;DHT22;5396;50.950;6.988;2022-12-07T17:36:37;5.10;99.90
10692;DHT22;5396;50.950;6.988;2022-12-07T17:39:07;5.10;99.90
10692;DHT22;5396;50.950;6.988;2022-12-07T17:41:34;5.10;99.90
10692;DHT22;5396;50.950;6.988;2022-12-07T17:44:19;5.20;99.90
10692;DHT22;5396;50.950;6.988;2022-12-07T17:46:48;5.10;99.90
10692;DHT22;5396;50.950;6.988;2022-12-07T17:49:14;5.10;99.90
10692;DHT22;5396;50.950;6.988;2022-12-07T17:51:40;5.20;99.90
10692;DHT22;5396;50.950;6.988;2022-12-07T17:54:25;5.20;99.90
10692;DHT22;5396;50.950;6.988;2022-12-07T17:56:50;5.20;99.90
10692;DHT22;5396;50.950;6.988;2022-12-07T17:59:16;5.20;99.90
10692;DHT22;5396;50.950;6.988;2022-12-07T18:01:42;5.20;99.90